sensor_id;sensor_type;location;lat;lon;timestamp;temperature;humidity
66670;DHT22;53568;52.164;4.472;2023-12-20T00:00:02;9.62;74.28
66670;DHT22;53568;52.164;4.472;2023-12-20T00:02:28;9.58;74.31
66670;DHT22;53568;52.164;4.472;2023-12-20T00:04:53;9.55;74.33
66670;DHT22;53568;52.164;4.472;2023-12-20T00:07:19;9.55;74.32
66670;DHT22;53568;52.164;4.472;2023-12-20T00:09:44;9.54;74.37
66670;DHT22;53568;52.164;4.472;2023-12-20T00:12:10;9.47;74.61
66670;DHT22;53568;52.164;4.472;2023-12-20T00:14:35;9.41;74.47
66670;DHT22;53568;52.164;4.472;2023-12-20T00:17:01;9.52;74.15
66670;DHT22;53568;52.164;4.472;2023-12-20T00:19:27;9.51;73.88
66670;DHT22;53568;52.164;4.472;2023-12-20T00:21:52;9.50;73.73
66670;DHT22;53568;52.164;4.472;2023-12-20T00:24:17;9.44;72.94
66670;DHT22;53568;52.164;4.472;2023-12-20T00:26:43;9.40;73.28
66670;DHT22;53568;52.164;4.472;2023-12-20T00:29:08;9.46;73.41
66670;DHT22;53568;52.164;4.472;2023-12-20T00:31:34;9.47;73.79
66670;DHT22;53568;52.164;4.472;2023-12-20T00:33:59;9.44;74.33
66670;DHT22;53568;52.164;4.472;2023-12-20T00:36:25;9.44;74.22
66670;DHT22;53568;52.164;4.472;2023-12-20T00:38:50;9.50;74.24
66670;DHT22;53568;52.164;4.472;2023-12-20T00:41:17;9.50;74.17
66670;DHT22;53568;52.164;4.472;2023-12-20T00:43:42;9.48;74.17
66670;DHT22;53568;52.164;4.472;2023-12-20T00:46:08;9.36;74.47
66670;DHT22;53568;52.164;4.472;2023-12-20T00:48:33;9.34;74.63
66670;DHT22;53568;52.164;4.472;2023-12-20T00:50:58;9.44;74.48
66670;DHT22;53568;52.164;4.472;2023-12-20T00:53:24;9.50;74.59
66670;DHT22;53568;52.164;4.472;2023-12-20T00:55:50;9.55;74.71
66670;DHT22;53568;52.164;4.472;2023-12-20T00:58:15;9.48;75.01
66670;DHT22;53568;52.164;4.472;2023-12-20T01:00:41;9.48;75.06
66670;DHT22;53568;52.164;4.472;2023-12-20T01:03:08;9.50;74.34
66670;DHT22;53568;52.164;4.472;2023-12-20T01:05:36;9.50;74.27
66670;DHT22;53568;52.164;4.472;2023-12-20T01:08:02;9.54;73.61
66670;DHT22;53568;52.164;4.472;2023-12-20T01:10:28;9.54;73.95
66670;DHT22;53568;52.164;4.472;2023-12-20T01:12:54;9.58;74.14
66670;DHT22;53568;52.164;4.472;2023-12-20T01:15:20;9.62;74.31
66670;DHT22;53568;52.164;4.472;2023-12-20T01:17:45;9.65;74.45
66670;DHT22;53568;52.164;4.472;2023-12-20T01:20:11;9.67;73.95
66670;DHT22;53568;52.164;4.472;2023-12-20T01:22:36;9.58;74.08
66670;DHT22;53568;52.164;4.472;2023-12-20T01:25:02;9.57;73.91
66670;DHT22;53568;52.164;4.472;2023-12-20T01:27:28;9.47;73.81
66670;DHT22;53568;52.164;4.472;2023-12-20T01:29:53;9.44;73.57
66670;DHT22;53568;52.164;4.472;2023-12-20T01:32:19;9.48;73.71
66670;DHT22;53568;52.164;4.472;2023-12-20T01:34:45;9.51;73.88
66670;DHT22;53568;52.164;4.472;2023-12-20T01:37:11;9.51;74.27
66670;DHT22;53568;52.164;4.472;2023-12-20T01:39:36;9.57;74.31
66670;DHT22;53568;52.164;4.472;2023-12-20T01:42:02;9.41;74.72
66670;DHT22;53568;52.164;4.472;2023-12-20T01:44:27;9.52;74.39
66670;DHT22;53568;52.164;4.472;2023-12-20T01:46:53;9.55;74.51
66670;DHT22;53568;52.164;4.472;2023-12-20T01:49:19;9.57;74.53
66670;DHT22;53568;52.164;4.472;2023-12-20T01:51:46;9.60;74.39
66670;DHT22;53568;52.164;4.472;2023-12-20T01:54:12;9.58;74.31
66670;DHT22;53568;52.164;4.472;2023-12-20T01:56:39;9.51;74.61
66670;DHT22;53568;52.164;4.472;2023-12-20T01:59:07;9.44;75.11
66670;DHT22;53568;52.164;4.472;2023-12-20T02:01:34;9.44;75.24
66670;DHT22;53568;52.164;4.472;2023-12-20T02:04:01;9.50;74.99
66670;DHT22;53568;52.164;4.472;2023-12-20T02:06:30;9.43;75.15
66670;DHT22;53568;52.164;4.472;2023-12-20T02:08:57;9.44;75.26
66670;DHT22;53568;52.164;4.472;2023-12-20T02:11:23;9.48;75.44
66670;DHT22;53568;52.164;4.472;2023-12-20T02:13:50;9.50;75.32
66670;DHT22;53568;52.164;4.472;2023-12-20T02:16:15;9.52;74.90
66670;DHT22;53568;52.164;4.472;2023-12-20T02:18:42;9.43;75.09
66670;DHT22;53568;52.164;4.472;2023-12-20T02:21:09;9.47;73.96
66670;DHT22;53568;52.164;4.472;2023-12-20T02:23:35;9.38;73.93
66670;DHT22;53568;52.164;4.472;2023-12-20T02:26:00;9.33;74.34
66670;DHT22;53568;52.164;4.472;2023-12-20T02:28:26;9.34;74.24
66670;DHT22;53568;52.164;4.472;2023-12-20T02:30:52;9.34;74.11
66670;DHT22;53568;52.164;4.472;2023-12-20T02:33:18;9.36;74.21
66670;DHT22;53568;52.164;4.472;2023-12-20T02:35:43;9.43;74.53
66670;DHT22;53568;52.164;4.472;2023-12-20T02:38:09;9.43;74.42
66670;DHT22;53568;52.164;4.472;2023-12-20T02:40:34;9.50;74.15
66670;DHT22;53568;52.164;4.472;2023-12-20T02:43:00;9.52;73.95
66670;DHT22;53568;52.164;4.472;2023-12-20T02:45:26;9.41;74.38
66670;DHT22;53568;52.164;4.472;2023-12-20T02:47:52;9.46;74.45
66670;DHT22;53568;52.164;4.472;2023-12-20T02:50:17;9.48;74.46
66670;DHT22;53568;52.164;4.472;2023-12-20T02:52:45;9.44;74.25
66670;DHT22;53568;52.164;4.472;2023-12-20T02:55:11;9.48;74.27
66670;DHT22;53568;52.164;4.472;2023-12-20T02:57:42;9.52;74.61
66670;DHT22;53568;52.164;4.472;2023-12-20T03:00:09;9.61;74.34
66670;DHT22;53568;52.164;4.472;2023-12-20T03:02:36;9.48;74.24
66670;DHT22;53568;52.164;4.472;2023-12-20T03:05:02;9.46;73.65
66670;DHT22;53568;52.164;4.472;2023-12-20T03:07:27;9.48;73.82
66670;DHT22;53568;52.164;4.472;2023-12-20T03:09:53;9.52;73.94
66670;DHT22;53568;52.164;4.472;2023-12-20T03:12:18;9.50;73.97
66670;DHT22;53568;52.164;4.472;2023-12-20T03:14:44;9.46;74.32
66670;DHT22;53568;52.164;4.472;2023-12-20T03:17:10;9.50;73.71
66670;DHT22;53568;52.164;4.472;2023-12-20T03:19:35;9.46;73.78
66670;DHT22;53568;52.164;4.472;2023-12-20T03:22:01;9.46;73.71
66670;DHT22;53568;52.164;4.472;2023-12-20T03:24:27;9.41;73.97
66670;DHT22;53568;52.164;4.472;2023-12-20T03:26:53;9.38;74.11
66670;DHT22;53568;52.164;4.472;2023-12-20T03:29:18;9.31;73.84
66670;DHT22;53568;52.164;4.472;2023-12-20T03:31:44;9.23;74.10
66670;DHT22;53568;52.164;4.472;2023-12-20T03:34:09;9.19;74.22
66670;DHT22;53568;52.164;4.472;2023-12-20T03:36:35;9.33;74.32
66670;DHT22;53568;52.164;4.472;2023-12-20T03:39:01;9.43;74.23
66670;DHT22;53568;52.164;4.472;2023-12-20T03:41:27;9.41;74.27
66670;DHT22;53568;52.164;4.472;2023-12-20T03:43:52;9.38;74.35
66670;DHT22;53568;52.164;4.472;2023-12-20T03:46:18;9.37;74.84
66670;DHT22;53568;52.164;4.472;2023-12-20T03:48:43;9.47;74.87
66670;DHT22;53568;52.164;4.472;2023-12-20T03:51:08;9.44;75.22
66670;DHT22;53568;52.164;4.472;2023-12-20T03:53:34;9.33;75.05
66670;DHT22;53568;52.164;4.472;2023-12-20T03:55:59;9.26;75.14
66670;DHT22;53568;52.164;4.472;2023-12-20T03:58:25;9.27;74.98
66670;DHT22;53568;52.164;4.472;2023-12-20T04:00:50;9.31;74.80
66670;DHT22;53568;52.164;4.472;2023-12-20T04:03:16;9.23;75.44
66670;DHT22;53568;52.164;4.472;2023-12-20T04:05:41;9.34;75.21
66670;DHT22;53568;52.164;4.472;2023-12-20T04:08:08;9.34;74.84
66670;DHT22;53568;52.164;4.472;2023-12-20T04:10:34;9.27;74.93
66670;DHT22;53568;52.164;4.472;2023-12-20T04:12:59;9.31;74.92
66670;DHT22;53568;52.164;4.472;2023-12-20T04:15:25;9.22;75.04
66670;DHT22;53568;52.164;4.472;2023-12-20T04:17:50;9.20;75.12
66670;DHT22;53568;52.164;4.472;2023-12-20T04:20:16;9.22;74.69
66670;DHT22;53568;52.164;4.472;2023-12-20T04:22:42;9.24;74.53
66670;DHT22;53568;52.164;4.472;2023-12-20T04:25:08;9.34;74.64
66670;DHT22;53568;52.164;4.472;2023-12-20T04:27:33;9.40;74.68
66670;DHT22;53568;52.164;4.472;2023-12-20T04:29:59;9.43;74.79
66670;DHT22;53568;52.164;4.472;2023-12-20T04:32:24;9.40;74.81
66670;DHT22;53568;52.164;4.472;2023-12-20T04:34:50;9.40;74.59
66670;DHT22;53568;52.164;4.472;2023-12-20T04:37:15;9.31;74.87
66670;DHT22;53568;52.164;4.472;2023-12-20T04:39:41;9.24;74.79
66670;DHT22;53568;52.164;4.472;2023-12-20T04:42:07;9.31;74.89
66670;DHT22;53568;52.164;4.472;2023-12-20T04:44:33;9.40;74.91
66670;DHT22;53568;52.164;4.472;2023-12-20T04:46:58;9.34;74.59
66670;DHT22;53568;52.164;4.472;2023-12-20T04:49:24;9.40;74.55
66670;DHT22;53568;52.164;4.472;2023-12-20T04:51:49;9.47;74.51
66670;DHT22;53568;52.164;4.472;2023-12-20T04:54:15;9.38;74.51
66670;DHT22;53568;52.164;4.472;2023-12-20T04:56:41;9.36;74.69
66670;DHT22;53568;52.164;4.472;2023-12-20T04:59:06;9.47;74.43
66670;DHT22;53568;52.164;4.472;2023-12-20T05:01:32;9.51;74.49
66670;DHT22;53568;52.164;4.472;2023-12-20T05:03:57;9.48;74.42
66670;DHT22;53568;52.164;4.472;2023-12-20T05:06:22;9.37;74.57
66670;DHT22;53568;52.164;4.472;2023-12-20T05:08:48;9.38;74.49
66670;DHT22;53568;52.164;4.472;2023-12-20T05:11:13;9.40;74.24
66670;DHT22;53568;52.164;4.472;2023-12-20T05:13:40;9.46;74.27
66670;DHT22;53568;52.164;4.472;2023-12-20T05:16:06;9.54;74.28
66670;DHT22;53568;52.164;4.472;2023-12-20T05:18:31;9.51;74.50
66670;DHT22;53568;52.164;4.472;2023-12-20T05:20:57;9.52;74.45
66670;DHT22;53568;52.164;4.472;2023-12-20T05:23:23;9.61;74.42
66670;DHT22;53568;52.164;4.472;2023-12-20T05:25:49;9.57;74.57
66670;DHT22;53568;52.164;4.472;2023-12-20T05:28:15;9.57;74.59
66670;DHT22;53568;52.164;4.472;2023-12-20T05:30:40;9.60;74.96
66670;DHT22;53568;52.164;4.472;2023-12-20T05:33:06;9.65;74.85
66670;DHT22;53568;52.164;4.472;2023-12-20T05:35:31;9.74;74.83
66670;DHT22;53568;52.164;4.472;2023-12-20T05:37:57;9.74;74.93
66670;DHT22;53568;52.164;4.472;2023-12-20T05:40:22;9.78;74.74
66670;DHT22;53568;52.164;4.472;2023-12-20T05:42:48;9.75;73.98
66670;DHT22;53568;52.164;4.472;2023-12-20T05:45:14;9.74;74.05
66670;DHT22;53568;52.164;4.472;2023-12-20T05:47:40;9.71;74.42
66670;DHT22;53568;52.164;4.472;2023-12-20T05:50:06;9.74;74.61
66670;DHT22;53568;52.164;4.472;2023-12-20T05:52:31;9.67;74.56
66670;DHT22;53568;52.164;4.472;2023-12-20T05:54:57;9.62;74.69
66670;DHT22;53568;52.164;4.472;2023-12-20T05:57:26;9.73;74.89
66670;DHT22;53568;52.164;4.472;2023-12-20T05:59:52;9.77;74.94
66670;DHT22;53568;52.164;4.472;2023-12-20T06:02:17;9.81;74.73
66670;DHT22;53568;52.164;4.472;2023-12-20T06:04:43;9.81;75.09
66670;DHT22;53568;52.164;4.472;2023-12-20T06:07:12;9.70;75.57
66670;DHT22;53568;52.164;4.472;2023-12-20T06:09:38;9.64;75.51
66670;DHT22;53568;52.164;4.472;2023-12-20T06:12:04;9.65;75.05
66670;DHT22;53568;52.164;4.472;2023-12-20T06:14:29;9.61;74.90
66670;DHT22;53568;52.164;4.472;2023-12-20T06:16:57;9.69;74.26
66670;DHT22;53568;52.164;4.472;2023-12-20T06:19:22;9.69;74.31
66670;DHT22;53568;52.164;4.472;2023-12-20T06:21:48;9.69;74.53
66670;DHT22;53568;52.164;4.472;2023-12-20T06:24:14;9.67;74.78
66670;DHT22;53568;52.164;4.472;2023-12-20T06:26:40;9.65;75.03
66670;DHT22;53568;52.164;4.472;2023-12-20T06:29:05;9.58;75.49
66670;DHT22;53568;52.164;4.472;2023-12-20T06:31:31;9.75;75.19
66670;DHT22;53568;52.164;4.472;2023-12-20T06:33:58;9.78;74.74
66670;DHT22;53568;52.164;4.472;2023-12-20T06:36:26;9.77;74.60
66670;DHT22;53568;52.164;4.472;2023-12-20T06:38:52;9.69;74.79
66670;DHT22;53568;52.164;4.472;2023-12-20T06:41:18;9.52;75.02
66670;DHT22;53568;52.164;4.472;2023-12-20T06:43:44;9.61;74.93
66670;DHT22;53568;52.164;4.472;2023-12-20T06:46:09;9.62;74.91
66670;DHT22;53568;52.164;4.472;2023-12-20T06:48:35;9.74;75.05
66670;DHT22;53568;52.164;4.472;2023-12-20T06:51:01;9.75;75.21
66670;DHT22;53568;52.164;4.472;2023-12-20T06:53:29;9.71;75.54
66670;DHT22;53568;52.164;4.472;2023-12-20T06:55:55;9.75;75.55
66670;DHT22;53568;52.164;4.472;2023-12-20T06:58:23;9.71;75.59
66670;DHT22;53568;52.164;4.472;2023-12-20T07:00:50;9.64;75.65
66670;DHT22;53568;52.164;4.472;2023-12-20T07:03:16;9.61;75.56
66670;DHT22;53568;52.164;4.472;2023-12-20T07:05:42;9.67;75.48
66670;DHT22;53568;52.164;4.472;2023-12-20T07:08:07;9.64;75.59
66670;DHT22;53568;52.164;4.472;2023-12-20T07:10:33;9.71;75.39
66670;DHT22;53568;52.164;4.472;2023-12-20T07:12:58;9.67;75.32
66670;DHT22;53568;52.164;4.472;2023-12-20T07:15:24;9.64;75.28
66670;DHT22;53568;52.164;4.472;2023-12-20T07:17:49;9.69;75.13
66670;DHT22;53568;52.164;4.472;2023-12-20T07:20:15;9.71;74.67
66670;DHT22;53568;52.164;4.472;2023-12-20T07:22:40;9.77;74.60
66670;DHT22;53568;52.164;4.472;2023-12-20T07:25:07;9.70;75.17
66670;DHT22;53568;52.164;4.472;2023-12-20T07:27:32;9.75;75.03
66670;DHT22;53568;52.164;4.472;2023-12-20T07:29:58;9.75;75.15
66670;DHT22;53568;52.164;4.472;2023-12-20T07:32:23;9.77;75.16
66670;DHT22;53568;52.164;4.472;2023-12-20T07:34:49;9.80;75.47
66670;DHT22;53568;52.164;4.472;2023-12-20T07:37:14;9.80;75.58
66670;DHT22;53568;52.164;4.472;2023-12-20T07:39:41;9.78;75.58
66670;DHT22;53568;52.164;4.472;2023-12-20T07:42:07;9.82;75.59
66670;DHT22;53568;52.164;4.472;2023-12-20T07:44:33;9.90;75.52
66670;DHT22;53568;52.164;4.472;2023-12-20T07:46:58;9.92;75.70
66670;DHT22;53568;52.164;4.472;2023-12-20T07:49:24;9.88;75.58
66670;DHT22;53568;52.164;4.472;2023-12-20T07:51:49;9.90;75.67
66670;DHT22;53568;52.164;4.472;2023-12-20T07:54:15;9.94;75.57
66670;DHT22;53568;52.164;4.472;2023-12-20T07:56:41;9.81;75.91
66670;DHT22;53568;52.164;4.472;2023-12-20T07:59:07;9.80;76.14
66670;DHT22;53568;52.164;4.472;2023-12-20T08:01:32;9.84;76.20
66670;DHT22;53568;52.164;4.472;2023-12-20T08:03:58;9.85;76.28
66670;DHT22;53568;52.164;4.472;2023-12-20T08:06:23;9.91;76.21
66670;DHT22;53568;52.164;4.472;2023-12-20T08:08:49;9.84;76.42
66670;DHT22;53568;52.164;4.472;2023-12-20T08:11:14;9.87;76.51
66670;DHT22;53568;52.164;4.472;2023-12-20T08:13:40;9.85;76.54
66670;DHT22;53568;52.164;4.472;2023-12-20T08:16:05;9.97;76.35
66670;DHT22;53568;52.164;4.472;2023-12-20T08:18:31;9.92;76.34
66670;DHT22;53568;52.164;4.472;2023-12-20T08:20:56;9.98;76.35
66670;DHT22;53568;52.164;4.472;2023-12-20T08:23:22;10.04;76.18
66670;DHT22;53568;52.164;4.472;2023-12-20T08:25:47;9.99;76.14
66670;DHT22;53568;52.164;4.472;2023-12-20T08:28:14;9.92;76.29
66670;DHT22;53568;52.164;4.472;2023-12-20T08:30:39;9.88;76.07
66670;DHT22;53568;52.164;4.472;2023-12-20T08:33:06;9.97;75.90
66670;DHT22;53568;52.164;4.472;2023-12-20T08:35:39;9.95;75.79
66670;DHT22;53568;52.164;4.472;2023-12-20T08:38:05;9.99;75.67
66670;DHT22;53568;52.164;4.472;2023-12-20T08:40:31;9.92;75.99
66670;DHT22;53568;52.164;4.472;2023-12-20T08:42:56;9.95;75.90
66670;DHT22;53568;52.164;4.472;2023-12-20T08:45:22;9.91;76.30
66670;DHT22;53568;52.164;4.472;2023-12-20T08:47:47;9.97;75.84
66670;DHT22;53568;52.164;4.472;2023-12-20T08:50:13;9.97;76.06
66670;DHT22;53568;52.164;4.472;2023-12-20T08:52:38;9.98;75.64
66670;DHT22;53568;52.164;4.472;2023-12-20T08:55:04;9.92;75.60
66670;DHT22;53568;52.164;4.472;2023-12-20T08:57:30;9.94;75.85
66670;DHT22;53568;52.164;4.472;2023-12-20T08:59:57;10.05;75.81
66670;DHT22;53568;52.164;4.472;2023-12-20T09:02:23;10.01;75.86
66670;DHT22;53568;52.164;4.472;2023-12-20T09:04:48;9.91;76.18
66670;DHT22;53568;52.164;4.472;2023-12-20T09:07:24;9.97;76.31
66670;DHT22;53568;52.164;4.472;2023-12-20T09:09:50;10.01;75.93
66670;DHT22;53568;52.164;4.472;2023-12-20T09:12:18;10.01;76.03
66670;DHT22;53568;52.164;4.472;2023-12-20T09:14:45;10.01;76.32
66670;DHT22;53568;52.164;4.472;2023-12-20T09:17:10;10.04;76.30
66670;DHT22;53568;52.164;4.472;2023-12-20T09:19:38;9.99;76.51
66670;DHT22;53568;52.164;4.472;2023-12-20T09:22:05;10.04;76.21
66670;DHT22;53568;52.164;4.472;2023-12-20T09:24:31;10.04;76.51
66670;DHT22;53568;52.164;4.472;2023-12-20T09:26:56;10.11;76.53
66670;DHT22;53568;52.164;4.472;2023-12-20T09:29:22;10.11;76.47
66670;DHT22;53568;52.164;4.472;2023-12-20T09:31:48;10.09;76.69
66670;DHT22;53568;52.164;4.472;2023-12-20T09:34:15;10.12;76.41
66670;DHT22;53568;52.164;4.472;2023-12-20T09:36:41;10.19;76.29
66670;DHT22;53568;52.164;4.472;2023-12-20T09:39:16;10.25;75.96
66670;DHT22;53568;52.164;4.472;2023-12-20T09:41:45;10.29;75.72
66670;DHT22;53568;52.164;4.472;2023-12-20T09:44:15;10.38;75.74
66670;DHT22;53568;52.164;4.472;2023-12-20T09:46:44;10.38;75.21
66670;DHT22;53568;52.164;4.472;2023-12-20T09:49:11;10.34;75.02
66670;DHT22;53568;52.164;4.472;2023-12-20T09:51:37;10.28;75.28
66670;DHT22;53568;52.164;4.472;2023-12-20T09:54:03;10.35;75.26
66670;DHT22;53568;52.164;4.472;2023-12-20T09:56:29;10.42;74.76
66670;DHT22;53568;52.164;4.472;2023-12-20T09:58:56;10.31;75.23
66670;DHT22;53568;52.164;4.472;2023-12-20T10:01:23;10.31;75.54
66670;DHT22;53568;52.164;4.472;2023-12-20T10:03:51;10.32;75.51
66670;DHT22;53568;52.164;4.472;2023-12-20T10:06:19;10.35;75.69
66670;DHT22;53568;52.164;4.472;2023-12-20T10:08:45;10.28;75.91
66670;DHT22;53568;52.164;4.472;2023-12-20T10:11:10;10.31;75.98
66670;DHT22;53568;52.164;4.472;2023-12-20T10:13:43;10.36;75.84
66670;DHT22;53568;52.164;4.472;2023-12-20T10:16:08;10.38;75.92
66670;DHT22;53568;52.164;4.472;2023-12-20T10:18:34;10.36;75.89
66670;DHT22;53568;52.164;4.472;2023-12-20T10:21:00;10.45;75.41
66670;DHT22;53568;52.164;4.472;2023-12-20T10:23:26;10.38;75.46
66670;DHT22;53568;52.164;4.472;2023-12-20T10:25:59;10.38;75.58
66670;DHT22;53568;52.164;4.472;2023-12-20T10:28:25;10.34;75.80
66670;DHT22;53568;52.164;4.472;2023-12-20T10:30:54;10.44;75.71
66670;DHT22;53568;52.164;4.472;2023-12-20T10:33:25;10.50;75.56
66670;DHT22;53568;52.164;4.472;2023-12-20T10:35:52;10.55;75.63
66670;DHT22;53568;52.164;4.472;2023-12-20T10:38:18;10.55;75.81
66670;DHT22;53568;52.164;4.472;2023-12-20T10:40:45;10.60;75.76
66670;DHT22;53568;52.164;4.472;2023-12-20T10:43:12;10.66;75.49
66670;DHT22;53568;52.164;4.472;2023-12-20T10:45:38;10.68;75.34
66670;DHT22;53568;52.164;4.472;2023-12-20T10:48:04;10.72;75.18
66670;DHT22;53568;52.164;4.472;2023-12-20T10:50:31;10.75;74.55
66670;DHT22;53568;52.164;4.472;2023-12-20T10:52:58;10.68;74.81
66670;DHT22;53568;52.164;4.472;2023-12-20T10:55:24;10.70;75.03
66670;DHT22;53568;52.164;4.472;2023-12-20T10:58:00;10.77;74.82
66670;DHT22;53568;52.164;4.472;2023-12-20T11:00:29;10.72;74.90
66670;DHT22;53568;52.164;4.472;2023-12-20T11:03:00;10.75;75.28
66670;DHT22;53568;52.164;4.472;2023-12-20T11:05:43;10.76;75.37
66670;DHT22;53568;52.164;4.472;2023-12-20T11:08:19;10.73;75.23
66670;DHT22;53568;52.164;4.472;2023-12-20T11:11:04;10.65;75.08
66670;DHT22;53568;52.164;4.472;2023-12-20T11:13:53;10.68;75.19
66670;DHT22;53568;52.164;4.472;2023-12-20T11:16:19;10.66;75.48
66670;DHT22;53568;52.164;4.472;2023-12-20T11:18:45;10.53;75.42
66670;DHT22;53568;52.164;4.472;2023-12-20T11:21:11;10.66;75.81
66670;DHT22;53568;52.164;4.472;2023-12-20T11:23:36;10.69;75.74
66670;DHT22;53568;52.164;4.472;2023-12-20T11:26:02;10.60;75.56
66670;DHT22;53568;52.164;4.472;2023-12-20T11:28:28;10.66;75.70
66670;DHT22;53568;52.164;4.472;2023-12-20T11:30:57;10.72;75.37
66670;DHT22;53568;52.164;4.472;2023-12-20T11:33:36;10.69;75.43
66670;DHT22;53568;52.164;4.472;2023-12-20T11:36:03;10.68;75.58
66670;DHT22;53568;52.164;4.472;2023-12-20T11:38:57;10.69;75.79
66670;DHT22;53568;52.164;4.472;2023-12-20T11:41:23;10.60;75.97
66670;DHT22;53568;52.164;4.472;2023-12-20T11:43:53;10.65;75.96
66670;DHT22;53568;52.164;4.472;2023-12-20T11:46:20;10.59;76.25
66670;DHT22;53568;52.164;4.472;2023-12-20T11:48:46;10.68;76.43
66670;DHT22;53568;52.164;4.472;2023-12-20T11:51:13;10.68;76.03
66670;DHT22;53568;52.164;4.472;2023-12-20T11:53:42;10.65;76.17
66670;DHT22;53568;52.164;4.472;2023-12-20T11:56:09;10.44;76.29
66670;DHT22;53568;52.164;4.472;2023-12-20T11:58:35;10.58;76.36
66670;DHT22;53568;52.164;4.472;2023-12-20T12:01:01;10.59;76.20
66670;DHT22;53568;52.164;4.472;2023-12-20T12:03:32;10.65;76.20
66670;DHT22;53568;52.164;4.472;2023-12-20T12:05:58;10.79;75.84
66670;DHT22;53568;52.164;4.472;2023-12-20T12:08:24;10.68;75.93
66670;DHT22;53568;52.164;4.472;2023-12-20T12:10:49;10.77;75.67
66670;DHT22;53568;52.164;4.472;2023-12-20T12:13:15;10.80;75.61
66670;DHT22;53568;52.164;4.472;2023-12-20T12:15:42;10.83;75.58
66670;DHT22;53568;52.164;4.472;2023-12-20T12:18:08;10.79;75.55
66670;DHT22;53568;52.164;4.472;2023-12-20T12:20:33;10.90;75.25
66670;DHT22;53568;52.164;4.472;2023-12-20T12:23:08;10.93;74.84
66670;DHT22;53568;52.164;4.472;2023-12-20T12:25:37;10.86;74.94
66670;DHT22;53568;52.164;4.472;2023-12-20T12:28:03;10.93;74.93
66670;DHT22;53568;52.164;4.472;2023-12-20T12:30:28;10.99;74.78
66670;DHT22;53568;52.164;4.472;2023-12-20T12:32:56;11.03;74.63
66670;DHT22;53568;52.164;4.472;2023-12-20T12:35:22;11.02;74.76
66670;DHT22;53568;52.164;4.472;2023-12-20T12:37:47;11.00;74.73
66670;DHT22;53568;52.164;4.472;2023-12-20T12:40:15;11.03;74.89
66670;DHT22;53568;52.164;4.472;2023-12-20T12:42:42;10.95;75.01
66670;DHT22;53568;52.164;4.472;2023-12-20T12:45:08;10.84;74.75
66670;DHT22;53568;52.164;4.472;2023-12-20T12:47:34;10.86;74.66
66670;DHT22;53568;52.164;4.472;2023-12-20T12:50:00;10.95;74.68
66670;DHT22;53568;52.164;4.472;2023-12-20T12:52:26;10.97;74.70
66670;DHT22;53568;52.164;4.472;2023-12-20T12:54:52;10.96;74.74
66670;DHT22;53568;52.164;4.472;2023-12-20T12:57:19;10.82;75.27
66670;DHT22;53568;52.164;4.472;2023-12-20T12:59:45;10.80;75.35
66670;DHT22;53568;52.164;4.472;2023-12-20T13:02:15;10.77;75.19
66670;DHT22;53568;52.164;4.472;2023-12-20T13:04:41;10.82;74.97
66670;DHT22;53568;52.164;4.472;2023-12-20T13:07:08;10.83;75.18
66670;DHT22;53568;52.164;4.472;2023-12-20T13:09:36;10.77;75.34
66670;DHT22;53568;52.164;4.472;2023-12-20T13:12:02;10.79;75.31
66670;DHT22;53568;52.164;4.472;2023-12-20T13:14:30;10.88;75.13
66670;DHT22;53568;52.164;4.472;2023-12-20T13:16:56;10.86;75.15
66670;DHT22;53568;52.164;4.472;2023-12-20T13:19:21;10.84;75.21
66670;DHT22;53568;52.164;4.472;2023-12-20T13:21:47;10.80;75.44
66670;DHT22;53568;52.164;4.472;2023-12-20T13:24:12;10.84;75.39
66670;DHT22;53568;52.164;4.472;2023-12-20T13:26:38;10.82;75.65
66670;DHT22;53568;52.164;4.472;2023-12-20T13:29:03;10.83;75.81
66670;DHT22;53568;52.164;4.472;2023-12-20T13:31:29;10.93;75.72
66670;DHT22;53568;52.164;4.472;2023-12-20T13:33:54;10.88;75.94
66670;DHT22;53568;52.164;4.472;2023-12-20T13:36:20;10.89;76.07
66670;DHT22;53568;52.164;4.472;2023-12-20T13:38:45;10.96;76.02
66670;DHT22;53568;52.164;4.472;2023-12-20T13:41:11;10.90;76.06
66670;DHT22;53568;52.164;4.472;2023-12-20T13:43:36;10.93;76.02
66670;DHT22;53568;52.164;4.472;2023-12-20T13:46:02;10.95;76.11
66670;DHT22;53568;52.164;4.472;2023-12-20T13:48:27;10.93;76.22
66670;DHT22;53568;52.164;4.472;2023-12-20T13:50:53;10.92;76.24
66670;DHT22;53568;52.164;4.472;2023-12-20T13:53:20;10.92;76.37
66670;DHT22;53568;52.164;4.472;2023-12-20T13:55:45;10.90;76.42
66670;DHT22;53568;52.164;4.472;2023-12-20T13:58:11;10.92;76.16
66670;DHT22;53568;52.164;4.472;2023-12-20T14:00:36;10.95;76.26
66670;DHT22;53568;52.164;4.472;2023-12-20T14:03:03;10.90;76.38
66670;DHT22;53568;52.164;4.472;2023-12-20T14:05:29;10.86;76.52
66670;DHT22;53568;52.164;4.472;2023-12-20T14:07:55;10.90;76.38
66670;DHT22;53568;52.164;4.472;2023-12-20T14:10:23;10.89;76.21
66670;DHT22;53568;52.164;4.472;2023-12-20T14:12:52;10.95;76.22
66670;DHT22;53568;52.164;4.472;2023-12-20T14:15:17;10.84;76.31
66670;DHT22;53568;52.164;4.472;2023-12-20T14:17:43;10.86;76.12
66670;DHT22;53568;52.164;4.472;2023-12-20T14:20:09;10.84;76.32
66670;DHT22;53568;52.164;4.472;2023-12-20T14:22:36;10.84;76.40
66670;DHT22;53568;52.164;4.472;2023-12-20T14:25:04;10.89;76.29
66670;DHT22;53568;52.164;4.472;2023-12-20T14:27:30;10.97;76.26
66670;DHT22;53568;52.164;4.472;2023-12-20T14:29:55;10.96;76.23
66670;DHT22;53568;52.164;4.472;2023-12-20T14:32:21;10.95;76.28
66670;DHT22;53568;52.164;4.472;2023-12-20T14:34:46;10.96;76.33
66670;DHT22;53568;52.164;4.472;2023-12-20T14:37:12;10.93;76.67
66670;DHT22;53568;52.164;4.472;2023-12-20T14:39:38;10.93;76.73
66670;DHT22;53568;52.164;4.472;2023-12-20T14:42:10;10.89;76.88
66670;DHT22;53568;52.164;4.472;2023-12-20T14:44:39;10.84;77.22
66670;DHT22;53568;52.164;4.472;2023-12-20T14:47:06;10.79;77.30
66670;DHT22;53568;52.164;4.472;2023-12-20T14:49:32;10.76;77.33
66670;DHT22;53568;52.164;4.472;2023-12-20T14:51:57;10.79;77.45
66670;DHT22;53568;52.164;4.472;2023-12-20T14:54:23;10.80;77.21
66670;DHT22;53568;52.164;4.472;2023-12-20T14:56:49;10.84;77.02
66670;DHT22;53568;52.164;4.472;2023-12-20T14:59:14;10.82;77.22
66670;DHT22;53568;52.164;4.472;2023-12-20T15:01:40;10.79;77.26
66670;DHT22;53568;52.164;4.472;2023-12-20T15:04:06;10.80;77.35
66670;DHT22;53568;52.164;4.472;2023-12-20T15:06:32;10.80;77.57
66670;DHT22;53568;52.164;4.472;2023-12-20T15:08:59;10.79;77.68
66670;DHT22;53568;52.164;4.472;2023-12-20T15:11:25;10.76;77.90
66670;DHT22;53568;52.164;4.472;2023-12-20T15:13:51;10.76;77.87
66670;DHT22;53568;52.164;4.472;2023-12-20T15:16:24;10.75;78.02
66670;DHT22;53568;52.164;4.472;2023-12-20T15:18:51;10.73;77.91
66670;DHT22;53568;52.164;4.472;2023-12-20T15:21:17;10.73;78.02
66670;DHT22;53568;52.164;4.472;2023-12-20T15:23:43;10.70;78.16
66670;DHT22;53568;52.164;4.472;2023-12-20T15:26:20;10.68;78.33
66670;DHT22;53568;52.164;4.472;2023-12-20T15:28:46;10.66;78.49
66670;DHT22;53568;52.164;4.472;2023-12-20T15:31:11;10.65;78.66
66670;DHT22;53568;52.164;4.472;2023-12-20T15:33:38;10.62;78.68